Time;durP1;ratioP1;P1;durP2;ratioP2;P2;SDS_P1;SDS_P2;PMS_P1;PMS_P2;Temp;Humidity;BMP_temperature;BMP_pressure;BME280_temperature;BME280_humidity;BME280_pressure;Samples;Min_cycle;Max_cycle;Signal;HPM_P1;HPM_P2
2022/09/27 00:00:58;;;;;;;;;;;;;;;21.12;30.13;96979.97;5055284;28;870;-82
2022/09/27 00:03:23;;;;;;;;;;;;;;;20.86;30.48;96975.78;5056447;28;1979;-82
2022/09/27 00:05:49;;;;;;;;;;;;;;;20.92;30.34;96971.09;5056587;28;818;-82
2022/09/27 00:08:14;;;;;;;;;;;;;;;20.80;30.89;96973.56;5055496;28;1152;-82
2022/09/27 00:10:40;;;;;;;;;;;;;;;20.72;30.67;96960.94;5055001;28;810;-82
2022/09/27 00:13:05;;;;;;;;;;;;;;;20.77;31.36;96963.19;5056505;28;770;-82
2022/09/27 00:15:31;;;;;;;;;;;;;;;21.23;30.01;96963.34;5055023;28;849;-82
2022/09/27 00:17:56;;;;;;;;;;;;;;;21.58;29.69;96951.81;5055226;28;789;-82
2022/09/27 00:20:21;;;;;;;;;;;;;;;21.03;30.37;96951.66;5054977;28;826;-82
2022/09/27 00:22:47;;;;;;;;;;;;;;;20.96;30.44;96940.63;5038908;28;1333;-82
2022/09/27 00:25:13;;;;;;;;;;;;;;;21.04;30.17;96941.94;5055166;28;1972;-82
2022/09/27 00:27:38;;;;;;;;;;;;;;;20.88;30.33;96945.81;5055262;28;951;-82
2022/09/27 00:30:04;;;;;;;;;;;;;;;20.72;30.64;96949.66;5057361;28;973;-82
2022/09/27 00:32:29;;;;;;;;;;;;;;;20.87;30.51;96958.34;5059036;28;1153;-82
2022/09/27 00:34:55;;;;;;;;;;;;;;;20.91;30.43;96966.69;5059011;28;1113;-82
2022/09/27 00:37:21;;;;;;;;;;;;;;;21.39;30.02;96970.78;5042201;28;1235;-82
2022/09/27 00:39:46;;;;;;;;;;;;;;;21.50;29.63;96957.00;5058278;28;838;-81
2022/09/27 00:42:14;;;;;;;;;;;;;;;21.14;29.99;96962.53;5041793;28;1199;-82
2022/09/27 00:44:40;;;;;;;;;;;;;;;20.97;30.45;96959.97;5042154;28;1982;-82
2022/09/27 00:47:08;;;;;;;;;;;;;;;21.13;30.41;96955.28;5059510;28;843;-82
2022/09/27 00:49:42;;;;;;;;;;;;;;;20.98;30.26;96955.09;5059437;28;960;-82
2022/09/27 00:52:19;;;;;;;;;;;;;;;20.84;30.63;96955.69;5058515;28;731;-82
2022/09/27 00:54:45;;;;;;;;;;;;;;;20.67;30.91;96953.06;5058255;28;1174;-82
2022/09/27 00:57:10;;;;;;;;;;;;;;;20.74;31.06;96952.81;5058440;28;766;-81
2022/09/27 00:59:40;;;;;;;;;;;;;;;21.15;30.34;96959.25;5041854;28;1134;-82
2022/09/27 01:02:07;;;;;;;;;;;;;;;21.38;29.82;96942.97;5043988;28;1146;-82
2022/09/27 01:04:32;;;;;;;;;;;;;;;21.11;30.26;96952.16;5027496;28;1910;-82
2022/09/27 01:06:58;;;;;;;;;;;;;;;20.87;30.69;96946.25;5060316;28;795;-82
2022/09/27 01:09:24;;;;;;;;;;;;;;;20.93;30.50;96961.34;5060693;28;899;-82
2022/09/27 01:11:53;;;;;;;;;;;;;;;21.01;30.33;96957.00;5043708;28;1147;-82
2022/09/27 01:14:24;;;;;;;;;;;;;;;20.93;30.63;96938.72;5076987;28;767;-82
2022/09/27 01:16:54;;;;;;;;;;;;;;;20.79;30.81;96938.06;5060166;28;1139;-82
2022/09/27 01:19:25;;;;;;;;;;;;;;;20.62;31.11;96933.13;5036642;28;958;-82
2022/09/27 01:21:57;;;;;;;;;;;;;;;20.72;30.58;96927.03;5020702;28;1145;-82
2022/09/27 01:24:41;;;;;;;;;;;;;;;20.87;30.91;96927.25;5020359;28;1914;-82
2022/09/27 01:27:18;;;;;;;;;;;;;;;21.31;30.14;96927.09;5020172;28;1275;-82
2022/09/27 01:29:47;;;;;;;;;;;;;;;21.50;30.00;96927.88;5003908;28;1263;-81
2022/09/27 01:32:21;;;;;;;;;;;;;;;21.11;30.32;96924.66;5020185;28;1130;-82
2022/09/27 01:35:07;;;;;;;;;;;;;;;20.88;30.76;96928.03;5004128;28;1145;-82
2022/09/27 01:37:44;;;;;;;;;;;;;;;20.97;30.74;96930.91;5019649;28;1658;-82
2022/09/27 01:40:18;;;;;;;;;;;;;;;21.01;30.75;96937.19;5003480;28;1082;-82
2022/09/27 01:43:07;;;;;;;;;;;;;;;21.05;30.37;96932.19;5022415;28;1906;-82
2022/09/27 01:45:38;;;;;;;;;;;;;;;20.77;30.69;96917.94;5004529;28;1477;-82
2022/09/27 01:48:18;;;;;;;;;;;;;;;20.80;30.74;96925.50;5021671;28;1127;-81
2022/09/27 01:50:57;;;;;;;;;;;;;;;20.86;30.63;96930.56;5040497;28;1151;-82
2022/09/27 01:53:34;;;;;;;;;;;;;;;21.13;30.52;96927.78;5059342;28;931;-82
2022/09/27 01:56:26;;;;;;;;;;;;;;;21.29;30.28;96924.69;5046100;28;1588;-82
2022/09/27 01:59:00;;;;;;;;;;;;;;;21.28;30.34;96919.50;5043892;28;1243;-82
2022/09/27 02:01:26;;;;;;;;;;;;;;;20.84;31.04;96916.09;5056191;28;1252;-82
2022/09/27 02:03:51;;;;;;;;;;;;;;;20.98;30.71;96923.97;5022574;28;1973;-82
2022/09/27 02:06:38;;;;;;;;;;;;;;;20.90;30.82;96914.22;5036032;28;967;-81
2022/09/27 02:09:24;;;;;;;;;;;;;;;20.99;30.64;96902.94;5005554;28;1275;-82
2022/09/27 02:11:56;;;;;;;;;;;;;;;20.90;30.54;96914.22;5003412;28;1422;-82
2022/09/27 02:14:21;;;;;;;;;;;;;;;21.12;30.65;96897.94;5003179;28;1335;-82
2022/09/27 02:16:51;;;;;;;;;;;;;;;21.30;30.11;96900.84;5035833;28;1131;-82
2022/09/27 02:19:19;;;;;;;;;;;;;;;21.29;29.98;96913.38;4996760;28;1126;-82
2022/09/27 02:21:51;;;;;;;;;;;;;;;21.05;30.49;96920.88;4996645;28;1063;-82
2022/09/27 02:24:19;;;;;;;;;;;;;;;20.90;30.99;96931.97;4995960;28;1906;-82
2022/09/27 02:26:45;;;;;;;;;;;;;;;21.06;30.62;96939.41;4963958;28;1154;-82
2022/09/27 02:29:21;;;;;;;;;;;;;;;21.04;30.42;96920.09;4979856;28;1003;-82
2022/09/27 02:31:50;;;;;;;;;;;;;;;20.89;30.65;96921.94;4974960;28;1514;-82
2022/09/27 02:34:21;;;;;;;;;;;;;;;20.97;30.57;96919.59;4944715;28;1517;-82
2022/09/27 02:36:47;;;;;;;;;;;;;;;21.04;30.52;96925.75;4941607;29;1175;-82
2022/09/27 02:39:12;;;;;;;;;;;;;;;21.07;30.75;96935.31;4957267;29;1211;-82
2022/09/27 02:41:38;;;;;;;;;;;;;;;21.26;30.22;96930.50;4941209;29;1097;-82
2022/09/27 02:44:04;;;;;;;;;;;;;;;21.21;30.22;96917.75;4969431;28;1985;-82
2022/09/27 02:46:48;;;;;;;;;;;;;;;21.21;30.04;96928.31;4944488;28;1135;-81
2022/09/27 02:49:19;;;;;;;;;;;;;;;21.07;30.35;96929.66;4961152;28;1488;-81
2022/09/27 02:52:13;;;;;;;;;;;;;;;20.98;30.73;96915.50;4965170;28;1570;-82
2022/09/27 02:54:47;;;;;;;;;;;;;;;20.79;30.95;96915.47;4984368;28;1188;-82
2022/09/27 02:57:40;;;;;;;;;;;;;;;20.79;30.73;96909.81;5015098;28;910;-82
2022/09/27 03:00:23;;;;;;;;;;;;;;;21.13;30.31;96899.50;4998686;28;1276;-81
2022/09/27 03:03:13;;;;;;;;;;;;;;;21.35;30.10;96902.28;5017740;28;1972;-82
2022/09/27 03:06:09;;;;;;;;;;;;;;;21.41;29.74;96908.09;5023479;28;1222;-81
2022/09/27 03:08:36;;;;;;;;;;;;;;;21.09;30.22;96910.22;5038225;28;1186;-82
2022/09/27 03:11:01;;;;;;;;;;;;;;;21.09;30.19;96915.88;5022399;28;1380;-82
2022/09/27 03:13:27;;;;;;;;;;;;;;;20.81;30.75;96921.41;5039439;28;1181;-82
2022/09/27 03:15:54;;;;;;;;;;;;;;;20.88;30.63;96928.03;5056282;28;1209;-82
2022/09/27 03:18:47;;;;;;;;;;;;;;;20.74;30.81;96921.72;5042583;28;1395;-82
2022/09/27 03:21:31;;;;;;;;;;;;;;;20.71;31.03;96914.16;5056574;28;935;-82
2022/09/27 03:23:57;;;;;;;;;;;;;;;20.92;30.47;96911.72;5055882;28;1914;-82
2022/09/27 03:26:23;;;;;;;;;;;;;;;20.95;30.40;96905.91;5039767;28;1010;-82
2022/09/27 03:28:50;;;;;;;;;;;;;;;20.83;30.50;96887.06;5038121;28;1156;-82
2022/09/27 03:31:15;;;;;;;;;;;;;;;21.04;30.44;96868.41;5055575;28;1195;-82
2022/09/27 03:34:01;;;;;;;;;;;;;;;21.27;30.07;96869.84;5056307;28;993;-82
2022/09/27 03:36:27;;;;;;;;;;;;;;;21.32;29.98;96855.88;5057047;28;792;-82
2022/09/27 03:38:52;;;;;;;;;;;;;;;21.05;30.49;96847.34;5055605;28;1254;-82
2022/09/27 03:41:19;;;;;;;;;;;;;;;20.87;30.95;96859.38;5039142;28;1222;-83
2022/09/27 03:43:45;;;;;;;;;;;;;;;20.94;30.73;96861.94;5036186;28;1980;-82
2022/09/27 03:46:10;;;;;;;;;;;;;;;20.81;30.63;96862.06;5055240;28;1584;-82
2022/09/27 03:48:37;;;;;;;;;;;;;;;21.04;30.24;96855.03;5072291;28;1137;-82
2022/09/27 03:51:03;;;;;;;;;;;;;;;21.04;30.46;96852.22;5056754;28;903;-82
2022/09/27 03:53:29;;;;;;;;;;;;;;;20.83;30.70;96835.34;5055458;28;1171;-82
2022/09/27 03:55:56;;;;;;;;;;;;;;;20.93;30.42;96851.06;5055625;28;1142;-82
2022/09/27 03:58:22;;;;;;;;;;;;;;;21.15;30.26;96843.28;5077663;28;1080;-82
2022/09/27 04:00:47;;;;;;;;;;;;;;;21.41;29.90;96840.19;5057709;28;1986;-82
2022/09/27 04:03:13;;;;;;;;;;;;;;;21.26;29.88;96839.97;5045570;28;1980;-82
2022/09/27 04:05:59;;;;;;;;;;;;;;;21.05;30.28;96847.34;5091482;28;1847;-82
2022/09/27 04:08:33;;;;;;;;;;;;;;;20.91;30.85;96848.72;5066344;28;1372;-82
2022/09/27 04:10:59;;;;;;;;;;;;;;;20.78;30.72;96856.56;5065032;28;1435;-81
2022/09/27 04:13:25;;;;;;;;;;;;;;;20.80;30.89;96849.16;5065145;28;1349;-82
2022/09/27 04:15:54;;;;;;;;;;;;;;;20.81;30.60;96850.75;5065630;28;940;-82
2022/09/27 04:18:22;;;;;;;;;;;;;;;20.90;31.06;96840.72;5082425;28;828;-82
2022/09/27 04:21:00;;;;;;;;;;;;;;;21.30;30.06;96835.78;5077457;28;1699;-82
2022/09/27 04:23:27;;;;;;;;;;;;;;;21.28;29.82;96828.97;5044127;28;1918;-82
2022/09/27 04:25:53;;;;;;;;;;;;;;;21.01;30.54;96835.38;5060971;28;1241;-82
2022/09/27 04:28:39;;;;;;;;;;;;;;;20.86;30.67;96840.06;5068916;28;1021;-82
2022/09/27 04:31:06;;;;;;;;;;;;;;;20.92;30.46;96843.84;5055410;28;1161;-82
2022/09/27 04:34:07;;;;;;;;;;;;;;;20.67;30.90;96842.06;5039099;28;1287;-81
2022/09/27 04:36:34;;;;;;;;;;;;;;;20.76;30.83;96845.69;5088922;28;1227;-81
2022/09/27 04:39:13;;;;;;;;;;;;;;;20.71;31.00;96863.28;5070382;28;1489;-81
2022/09/27 04:41:44;;;;;;;;;;;;;;;20.93;30.69;96856.72;5035876;28;1548;-82
2022/09/27 04:44:10;;;;;;;;;;;;;;;21.44;30.03;96856.19;5090570;28;1970;-82
2022/09/27 04:46:37;;;;;;;;;;;;;;;21.49;29.52;96858.41;5050393;28;1690;-82
2022/09/27 04:49:03;;;;;;;;;;;;;;;21.22;29.96;96848.63;5054030;28;1121;-81
2022/09/27 04:51:30;;;;;;;;;;;;;;;21.21;30.23;96855.53;5038817;28;1210;-82
2022/09/27 04:53:56;;;;;;;;;;;;;;;20.85;30.54;96855.47;5038109;28;1335;-82
2022/09/27 04:56:26;;;;;;;;;;;;;;;20.90;30.41;96857.69;5038393;28;1067;-82
2022/09/27 04:58:52;;;;;;;;;;;;;;;20.64;31.07;96855.09;5058693;28;1765;-82
2022/09/27 05:01:18;;;;;;;;;;;;;;;20.75;30.94;96851.84;5081302;28;1539;-82
2022/09/27 05:04:02;;;;;;;;;;;;;;;20.91;30.40;96859.25;5071270;28;1980;-82
2022/09/27 05:06:29;;;;;;;;;;;;;;;21.21;30.30;96849.88;5040195;28;1268;-82
2022/09/27 05:08:59;;;;;;;;;;;;;;;21.40;29.87;96850.72;5025008;28;1289;-82
2022/09/27 05:11:28;;;;;;;;;;;;;;;21.24;29.99;96854.59;5040362;28;1107;-82
2022/09/27 05:14:13;;;;;;;;;;;;;;;20.99;30.39;96860.53;5043701;28;1541;-82
2022/09/27 05:16:54;;;;;;;;;;;;;;;20.84;30.79;96851.06;5052452;28;1068;-82
2022/09/27 05:19:45;;;;;;;;;;;;;;;20.93;30.34;96851.06;4990510;28;1417;-82
2022/09/27 05:22:18;;;;;;;;;;;;;;;20.93;30.40;96840.53;4994393;28;1203;-82
2022/09/27 05:24:44;;;;;;;;;;;;;;;21.03;30.32;96835.69;4994217;28;1911;-82
2022/09/27 05:27:11;;;;;;;;;;;;;;;20.99;30.50;96832.25;4994031;28;1219;-81
2022/09/27 05:29:37;;;;;;;;;;;;;;;21.19;30.09;96851.59;4991411;28;1547;-82
2022/09/27 05:32:17;;;;;;;;;;;;;;;21.54;29.49;96849.28;5011470;28;1783;-82
2022/09/27 05:34:46;;;;;;;;;;;;;;;21.13;30.11;96865.56;5013135;28;1827;-82
2022/09/27 05:37:12;;;;;;;;;;;;;;;21.12;30.08;96858.34;5013385;28;1165;-82
2022/09/27 05:39:39;;;;;;;;;;;;;;;20.79;30.80;96847.59;4980285;28;1224;-82
2022/09/27 05:42:07;;;;;;;;;;;;;;;20.78;30.90;96854.53;5016240;28;1207;-82
2022/09/27 05:44:34;;;;;;;;;;;;;;;21.03;30.26;96844.19;5016321;28;1906;-81
2022/09/27 05:47:03;;;;;;;;;;;;;;;20.93;30.73;96842.59;5000269;28;1823;-82
2022/09/27 05:49:29;;;;;;;;;;;;;;;20.87;30.76;96841.63;5016734;28;1242;-82
2022/09/27 05:51:55;;;;;;;;;;;;;;;20.93;30.59;96828.44;5016605;28;1353;-82
2022/09/27 05:54:22;;;;;;;;;;;;;;;21.04;30.43;96828.81;5015611;28;1546;-82
2022/09/27 05:56:48;;;;;;;;;;;;;;;21.29;30.36;96822.03;5056060;28;1174;-82
2022/09/27 05:59:36;;;;;;;;;;;;;;;21.45;29.95;96812.47;5093836;28;990;-82
2022/09/27 06:02:20;;;;;;;;;;;;;;;21.27;30.14;96819.69;5096171;28;907;-82
2022/09/27 06:04:51;;;;;;;;;;;;;;;20.99;30.80;96815.28;5095910;28;1909;-82
2022/09/27 06:07:40;;;;;;;;;;;;;;;20.96;30.52;96822.66;4977310;28;940;-82
2022/09/27 06:10:11;;;;;;;;;;;;;;;20.83;31.11;96835.34;4970359;28;1468;-82
2022/09/27 06:12:37;;;;;;;;;;;;;;;20.81;31.02;96845.09;5006135;28;1515;-81
2022/09/27 06:15:08;;;;;;;;;;;;;;;20.84;30.83;96851.88;4961034;28;1325;-81
2022/09/27 06:17:40;;;;;;;;;;;;;;;20.98;30.62;96837.09;4977873;28;1169;-82
2022/09/27 06:20:13;;;;;;;;;;;;;;;20.87;31.03;96833.16;4946741;29;1338;-82
2022/09/27 06:22:40;;;;;;;;;;;;;;;21.30;30.38;96835.78;4973912;28;1292;-82
2022/09/27 06:25:06;;;;;;;;;;;;;;;21.51;30.16;96828.38;4956754;28;1981;-82
2022/09/27 06:27:38;;;;;;;;;;;;;;;21.13;30.52;96819.53;4952507;28;1505;-82
2022/09/27 06:30:13;;;;;;;;;;;;;;;21.06;30.73;96834.78;4938248;29;814;-82
2022/09/27 06:32:58;;;;;;;;;;;;;;;21.10;30.62;96835.41;4954432;28;1270;-82
2022/09/27 06:35:32;;;;;;;;;;;;;;;21.01;30.77;96841.03;4938946;28;1544;-82
2022/09/27 06:37:59;;;;;;;;;;;;;;;20.88;30.97;96837.56;4954407;28;1147;-82
2022/09/27 06:40:25;;;;;;;;;;;;;;;20.87;31.00;96842.44;4954064;29;1331;-82
2022/09/27 06:42:51;;;;;;;;;;;;;;;20.92;31.03;96832.53;4954170;29;1027;-81
2022/09/27 06:45:37;;;;;;;;;;;;;;;20.87;30.91;96824.69;5003074;28;1911;-82
2022/09/27 06:48:31;;;;;;;;;;;;;;;20.81;31.78;96825.28;5011896;28;1279;-83
2022/09/27 06:51:04;;;;;;;;;;;;;;;21.29;30.83;96825.66;5042461;28;1143;-82
2022/09/27 06:53:30;;;;;;;;;;;;;;;21.36;30.64;96826.66;5058485;28;800;-82
2022/09/27 06:55:56;;;;;;;;;;;;;;;20.97;31.31;96826.28;5056043;28;1719;-81
2022/09/27 07:01:38;;;;;;;;;;;;;;;20.86;31.40;96820.28;5054208;28;1576;-81
2022/09/27 07:04:24;;;;;;;;;;;;;;;20.77;31.56;96824.66;5015064;28;1902;-82
2022/09/27 07:07:10;;;;;;;;;;;;;;;20.91;31.24;96834.59;5014797;28;1076;-82
2022/09/27 07:09:47;;;;;;;;;;;;;;;20.79;31.54;96825.00;4984129;28;1143;-81
2022/09/27 07:12:13;;;;;;;;;;;;;;;20.81;31.44;96808.34;4997322;28;1520;-81
2022/09/27 07:14:39;;;;;;;;;;;;;;;20.90;31.22;96813.22;5015451;28;1194;-81
2022/09/27 07:17:06;;;;;;;;;;;;;;;20.97;31.29;96817.78;4956996;29;1163;-81
2022/09/27 07:19:42;;;;;;;;;;;;;;;20.77;31.70;96810.53;4956864;29;1290;-82
2022/09/27 07:22:09;;;;;;;;;;;;;;;20.84;31.18;96828.47;4956489;29;1536;-82
2022/09/27 07:24:35;;;;;;;;;;;;;;;21.22;30.97;96823.16;4956672;29;1923;-82
2022/09/27 07:27:02;;;;;;;;;;;;;;;21.37;30.72;96828.22;4956571;29;1220;-82
2022/09/27 07:29:28;;;;;;;;;;;;;;;21.30;30.95;96835.00;4940824;28;1103;-82
2022/09/27 07:31:53;;;;;;;;;;;;;;;21.10;31.41;96826.94;4924192;29;1581;-82
2022/09/27 07:34:19;;;;;;;;;;;;;;;20.89;31.79;96822.97;4955318;29;1620;-82
2022/09/27 07:36:45;;;;;;;;;;;;;;;21.04;31.31;96828.81;4955747;29;1506;-81
2022/09/27 07:39:11;;;;;;;;;;;;;;;21.02;31.21;96826.44;4956866;28;1071;-82
2022/09/27 07:41:39;;;;;;;;;;;;;;;20.97;31.43;96814.97;4974621;28;1300;-82
2022/09/27 07:44:05;;;;;;;;;;;;;;;20.83;31.56;96807.06;4999418;28;1956;-82
2022/09/27 07:46:34;;;;;;;;;;;;;;;20.88;31.79;96817.75;5003830;28;1441;-82
2022/09/27 07:49:07;;;;;;;;;;;;;;;20.88;31.80;96820.59;5084794;28;1142;-82
2022/09/27 07:51:53;;;;;;;;;;;;;;;20.77;31.65;96824.66;5039729;28;1486;-82
2022/09/27 07:54:50;;;;;;;;;;;;;;;20.75;31.63;96813.03;5058675;28;859;-82
2022/09/27 07:57:47;;;;;;;;;;;;;;;21.13;31.92;96825.97;5045926;28;1217;-82
2022/09/27 08:00:14;;;;;;;;;;;;;;;21.51;30.87;96821.94;5045143;28;1494;-82
2022/09/27 08:02:41;;;;;;;;;;;;;;;21.17;31.19;96826.59;5061785;28;1434;-82
2022/09/27 08:05:07;;;;;;;;;;;;;;;20.81;31.98;96828.13;5061223;28;1973;-82
2022/09/27 08:07:33;;;;;;;;;;;;;;;20.80;32.29;96832.22;5042768;28;1585;-82
2022/09/27 08:09:59;;;;;;;;;;;;;;;21.01;31.54;96824.06;5058895;28;1572;-82
2022/09/27 08:12:25;;;;;;;;;;;;;;;21.00;31.55;96816.84;5041472;28;1115;-82
2022/09/27 08:14:51;;;;;;;;;;;;;;;20.93;31.64;96811.50;5058246;28;1267;-82
2022/09/27 08:17:17;;;;;;;;;;;;;;;20.76;32.00;96803.31;5041357;28;1141;-82
2022/09/27 08:20:05;;;;;;;;;;;;;;;20.79;32.17;96802.38;5031337;28;1587;-81
2022/09/27 08:23:03;;;;;;;;;;;;;;;20.95;31.48;96786.38;4998841;28;1090;-82
2022/09/27 08:25:33;;;;;;;;;;;;;;;20.91;31.60;96786.53;4977479;28;1979;-82
2022/09/27 08:28:05;;;;;;;;;;;;;;;20.89;31.65;96782.59;4978002;28;1200;-82
2022/09/27 08:30:56;;;;;;;;;;;;;;;21.03;31.19;96787.63;4959567;28;1066;-82
2022/09/27 08:33:23;;;;;;;;;;;;;;;21.00;32.00;96777.28;4930243;29;1552;-82
2022/09/27 08:35:49;;;;;;;;;;;;;;;21.29;31.49;96782.44;4959905;28;976;-82
2022/09/27 08:38:15;;;;;;;;;;;;;;;21.32;31.39;96782.31;4943817;29;1025;-82
2022/09/27 08:40:43;;;;;;;;;;;;;;;21.11;31.56;96794.56;4959450;29;1279;-82
2022/09/27 08:43:18;;;;;;;;;;;;;;;20.95;31.89;96786.38;4958997;28;1571;-82
2022/09/27 08:45:59;;;;;;;;;;;;;;;20.94;31.93;96784.81;4959725;29;1902;-81
2022/09/27 08:48:24;;;;;;;;;;;;;;;20.99;31.83;96787.00;4959416;29;1186;-82
2022/09/27 08:50:50;;;;;;;;;;;;;;;21.11;31.51;96794.56;4943096;29;974;-82
2022/09/27 08:53:21;;;;;;;;;;;;;;;20.93;31.96;96791.69;4958804;29;1575;-82
2022/09/27 08:55:51;;;;;;;;;;;;;;;20.84;32.16;96783.22;4954695;29;1476;-82
2022/09/27 08:58:30;;;;;;;;;;;;;;;20.81;31.91;96787.75;4973844;28;1575;-82
2022/09/27 09:00:57;;;;;;;;;;;;;;;20.78;32.19;96772.53;4977609;28;1572;-82
2022/09/27 09:03:27;;;;;;;;;;;;;;;20.73;32.21;96763.91;4978873;28;1981;-82
2022/09/27 09:06:02;;;;;;;;;;;;;;;20.60;32.44;96772.50;4978239;28;1092;-82
2022/09/27 09:08:33;;;;;;;;;;;;;;;20.88;31.66;96781.00;5006773;28;1577;-82
2022/09/27 09:14:10;;;;;;;;;;;;;;;21.39;31.73;96780.41;5001078;28;1189;-82
2022/09/27 09:16:55;;;;;;;;;;;;;;;21.11;31.96;96788.13;5000813;28;1310;-82
2022/09/27 09:19:26;;;;;;;;;;;;;;;20.93;32.39;96784.00;4998815;28;1386;-81
2022/09/27 09:22:09;;;;;;;;;;;;;;;20.88;32.28;96787.47;5000934;28;1138;-82
2022/09/27 09:24:53;;;;;;;;;;;;;;;20.85;32.25;96777.09;4984941;28;1911;-82
2022/09/27 09:27:40;;;;;;;;;;;;;;;21.10;31.63;96776.00;5026068;28;1470;-82
2022/09/27 09:30:15;;;;;;;;;;;;;;;21.16;31.64;96785.44;5037717;28;1223;-82
2022/09/27 09:32:50;;;;;;;;;;;;;;;21.19;31.44;96778.84;5070386;28;1307;-82
2022/09/27 09:35:21;;;;;;;;;;;;;;;20.79;32.21;96776.94;5037158;28;1517;-82
2022/09/27 09:37:50;;;;;;;;;;;;;;;21.00;31.61;96777.28;5037942;28;1126;-82
2022/09/27 09:40:24;;;;;;;;;;;;;;;20.72;32.29;96768.75;5037501;28;1148;-82
2022/09/27 09:42:55;;;;;;;;;;;;;;;20.78;32.06;96778.19;5037465;28;1505;-82
2022/09/27 09:45:32;;;;;;;;;;;;;;;20.65;32.18;96769.06;5037551;28;1910;-82
2022/09/27 09:48:00;;;;;;;;;;;;;;;20.86;32.02;96769.41;5053864;28;1185;-82
2022/09/27 09:50:27;;;;;;;;;;;;;;;20.86;31.69;96772.22;5038573;28;861;-82
2022/09/27 09:52:58;;;;;;;;;;;;;;;20.83;31.94;96778.81;5059851;28;1192;-82
2022/09/27 09:55:28;;;;;;;;;;;;;;;21.01;31.87;96768.31;5059194;28;1585;-82
2022/09/27 09:57:53;;;;;;;;;;;;;;;20.94;32.04;96774.28;5059488;28;1219;-82
2022/09/27 10:00:23;;;;;;;;;;;;;;;20.86;31.87;96760.91;5059094;28;1269;-82
2022/09/27 10:02:52;;;;;;;;;;;;;;;20.95;31.78;96756.06;5058536;28;1579;-83
2022/09/27 10:05:20;;;;;;;;;;;;;;;20.87;32.15;96748.34;5042614;28;1898;-82
2022/09/27 10:07:52;;;;;;;;;;;;;;;20.77;31.89;96748.31;5052839;28;1502;-82
2022/09/27 10:10:18;;;;;;;;;;;;;;;20.71;31.98;96738.13;5063032;28;1280;-82
2022/09/27 10:13:02;;;;;;;;;;;;;;;20.85;31.84;96733.91;5082111;28;780;-82
2022/09/27 10:15:31;;;;;;;;;;;;;;;20.97;32.87;96728.06;5063054;28;1232;-82
2022/09/27 10:17:58;;;;;;;;;;;;;;;21.36;32.26;96719.13;5058406;28;1518;-82
2022/09/27 10:20:44;;;;;;;;;;;;;;;21.42;32.04;96722.88;5059343;28;1143;-82
2022/09/27 10:23:14;;;;;;;;;;;;;;;21.18;32.57;96715.03;5034701;28;1126;-82
2022/09/27 10:25:59;;;;;;;;;;;;;;;21.07;32.66;96709.06;5051206;28;1533;-82
2022/09/27 10:28:43;;;;;;;;;;;;;;;20.91;32.75;96700.91;5038901;28;1193;-82
2022/09/27 10:31:13;;;;;;;;;;;;;;;21.04;32.50;96710.03;5039025;28;1572;-82
2022/09/27 10:33:56;;;;;;;;;;;;;;;20.87;32.67;96705.94;5039181;28;1205;-82
2022/09/27 10:36:24;;;;;;;;;;;;;;;20.87;32.63;96700.28;5038326;28;1509;-82
2022/09/27 10:42:21;;;;;;;;;;;;;;;20.78;32.60;96687.72;5055152;28;1027;-82
2022/09/27 10:44:47;;;;;;;;;;;;;;;20.73;32.75;96679.09;5018526;28;1989;-82
2022/09/27 10:47:21;;;;;;;;;;;;;;;20.85;32.38;96680.19;5043039;28;1585;-82
2022/09/27 10:50:03;;;;;;;;;;;;;;;20.87;32.38;96683.31;5023459;28;1494;-82
2022/09/27 10:53:04;;;;;;;;;;;;;;;20.81;32.78;96698.06;5038259;28;1360;-82
2022/09/27 10:55:31;;;;;;;;;;;;;;;20.86;32.44;96701.53;5036013;28;1550;-82
2022/09/27 10:57:56;;;;;;;;;;;;;;;20.78;32.50;96682.06;5052971;28;1176;-81
2022/09/27 11:00:24;;;;;;;;;;;;;;;20.71;32.51;96682.38;5036137;28;1371;-82
2022/09/27 11:02:56;;;;;;;;;;;;;;;20.65;32.61;96694.78;5052835;28;1245;-82
2022/09/27 11:05:28;;;;;;;;;;;;;;;20.66;32.46;96685.81;5058133;28;1923;-82
2022/09/27 11:07:55;;;;;;;;;;;;;;;20.75;32.38;96683.00;5037402;28;801;-82
2022/09/27 11:10:30;;;;;;;;;;;;;;;20.79;32.46;96680.81;5051473;28;1256;-81
2022/09/27 11:13:15;;;;;;;;;;;;;;;20.59;32.91;96674.06;5038639;28;1552;-82
2022/09/27 11:16:01;;;;;;;;;;;;;;;20.81;32.35;96681.13;5071597;28;1216;-82
2022/09/27 11:18:27;;;;;;;;;;;;;;;20.99;32.04;96673.91;5072970;28;1073;-82
2022/09/27 11:20:57;;;;;;;;;;;;;;;21.01;32.00;96671.38;5038376;28;1629;-82
2022/09/27 11:23:45;;;;;;;;;;;;;;;21.12;32.72;96671.66;5073035;28;1279;-82
2022/09/27 11:26:24;;;;;;;;;;;;;;;21.35;32.78;96666.59;5055515;28;1602;-82
2022/09/27 11:28:59;;;;;;;;;;;;;;;21.09;32.87;96666.97;5072386;28;1255;-82
2022/09/27 11:32:06;;;;;;;;;;;;;;;21.09;32.78;96661.31;5058208;28;1560;-83
2022/09/27 11:34:52;;;;;;;;;;;;;;;20.99;32.98;96654.88;5052382;28;1232;-82
2022/09/27 11:37:21;;;;;;;;;;;;;;;21.07;32.59;96646.84;5052328;28;1197;-82
2022/09/27 11:39:49;;;;;;;;;;;;;;;20.93;32.55;96650.31;5035750;28;1437;-82
2022/09/27 11:42:24;;;;;;;;;;;;;;;20.72;33.08;96650.03;5040594;28;1330;-82
2022/09/27 11:44:49;;;;;;;;;;;;;;;20.84;32.68;96645.47;5054367;28;1914;-82
2022/09/27 11:47:24;;;;;;;;;;;;;;;20.83;33.04;96643.91;5038007;28;1150;-82
2022/09/27 11:49:55;;;;;;;;;;;;;;;20.91;32.56;96633.06;5054333;28;1638;-81
2022/09/27 11:52:21;;;;;;;;;;;;;;;20.83;32.60;96632.59;5054620;28;1277;-82
2022/09/27 11:54:47;;;;;;;;;;;;;;;20.81;32.33;96618.94;5054461;28;1276;-82
2022/09/27 11:57:17;;;;;;;;;;;;;;;20.61;32.87;96620.66;5054599;28;1354;-81
2022/09/27 11:59:59;;;;;;;;;;;;;;;20.72;32.57;96618.16;5041557;28;1460;-82
2022/09/27 12:02:25;;;;;;;;;;;;;;;20.93;32.26;96619.22;5037958;28;1137;-81
2022/09/27 12:05:10;;;;;;;;;;;;;;;20.90;32.59;96614.53;5037741;28;1910;-82
2022/09/27 12:07:40;;;;;;;;;;;;;;;20.97;32.23;96608.53;5021562;28;1244;-82
2022/09/27 12:10:10;;;;;;;;;;;;;;;20.87;32.63;96615.47;5013927;28;1496;-82
2022/09/27 12:12:37;;;;;;;;;;;;;;;20.79;32.70;96627.09;4982309;28;1198;-81
2022/09/27 12:15:11;;;;;;;;;;;;;;;20.81;32.52;96630.22;4978305;28;1353;-81
2022/09/27 12:17:38;;;;;;;;;;;;;;;20.79;32.48;96632.75;4976665;28;1610;-81
2022/09/27 12:20:15;;;;;;;;;;;;;;;20.70;32.54;96624.28;4978698;28;1276;-82
2022/09/27 12:23:03;;;;;;;;;;;;;;;20.86;32.30;96636.50;4978799;28;1269;-82
2022/09/27 12:25:49;;;;;;;;;;;;;;;20.84;32.51;96644.69;4995773;28;1906;-80
2022/09/27 12:28:32;;;;;;;;;;;;;;;20.68;32.45;96643.75;4980396;28;1374;-81
2022/09/27 12:31:00;;;;;;;;;;;;;;;20.71;32.63;96637.16;4982233;28;1190;-81
2022/09/27 12:33:31;;;;;;;;;;;;;;;20.98;32.66;96632.72;4982218;28;1210;-82
2022/09/27 12:35:58;;;;;;;;;;;;;;;21.21;33.17;96640.53;4982502;28;1234;-81
2022/09/27 12:38:42;;;;;;;;;;;;;;;21.39;32.80;96627.63;4978260;28;1496;-81
2022/09/27 12:41:09;;;;;;;;;;;;;;;21.16;33.04;96620.59;5015635;28;1275;-82
2022/09/27 12:43:47;;;;;;;;;;;;;;;21.22;32.77;96619.47;5003232;28;1906;-82
2022/09/27 12:46:30;;;;;;;;;;;;;;;21.16;32.93;96621.38;5001707;28;1345;-81
2022/09/27 12:49:18;;;;;;;;;;;;;;;21.11;32.68;96630.50;5004787;28;1638;-82
2022/09/27 12:51:48;;;;;;;;;;;;;;;21.00;33.12;96621.75;5021014;28;1789;-82
2022/09/27 12:54:20;;;;;;;;;;;;;;;21.03;32.99;96623.59;5021104;28;1518;-81
2022/09/27 12:57:04;;;;;;;;;;;;;;;20.95;32.70;96611.84;5038811;28;1189;-82
2022/09/27 12:59:35;;;;;;;;;;;;;;;20.90;32.82;96609.66;5054891;28;1407;-82
2022/09/27 13:02:19;;;;;;;;;;;;;;;21.00;32.73;96604.78;5071672;28;1249;-82
2022/09/27 13:05:04;;;;;;;;;;;;;;;21.23;32.00;96609.72;5045547;28;1974;-82
2022/09/27 13:07:57;;;;;;;;;;;;;;;21.07;32.29;96607.25;5059233;28;746;-82
2022/09/27 13:10:25;;;;;;;;;;;;;;;21.12;32.13;96620.75;5058018;28;1326;-81
2022/09/27 13:12:53;;;;;;;;;;;;;;;20.84;32.80;96633.38;5058310;28;1108;-82
2022/09/27 13:15:32;;;;;;;;;;;;;;;20.99;32.28;96628.66;5078668;28;1538;-82
2022/09/27 13:18:02;;;;;;;;;;;;;;;20.75;32.75;96632.13;5020810;28;1249;-82
2022/09/27 13:20:48;;;;;;;;;;;;;;;20.80;32.40;96625.84;5020248;28;1452;-82
2022/09/27 13:23:39;;;;;;;;;;;;;;;20.97;32.09;96619.84;5036628;28;1906;-81
2022/09/27 13:26:08;;;;;;;;;;;;;;;20.96;32.25;96621.09;5032846;28;1646;-82
2022/09/27 13:28:46;;;;;;;;;;;;;;;20.83;32.33;96620.50;5020152;28;1386;-82
2022/09/27 13:31:17;;;;;;;;;;;;;;;20.80;32.42;96620.19;5020450;28;1266;-82
2022/09/27 13:33:50;;;;;;;;;;;;;;;21.01;31.86;96628.97;5020440;28;1281;-81
2022/09/27 13:36:25;;;;;;;;;;;;;;;20.84;32.16;96627.72;5031474;28;1490;-81